createdAt,value
2023-01-12T00:02:54.593Z,98956.00
2023-01-12T00:06:07.864Z,98955.25
2023-01-12T00:09:11.012Z,98947.59
2023-01-12T00:12:13.865Z,98951.47
2023-01-12T00:15:16.831Z,98949.91
2023-01-12T00:18:19.674Z,98944.00
2023-01-12T00:21:23.753Z,98942.38
2023-01-12T00:24:27.751Z,98937.41
2023-01-12T00:27:30.375Z,98935.97
2023-01-12T00:30:33.363Z,98933.38
2023-01-12T00:33:35.975Z,98941.59
2023-01-12T00:36:39.862Z,98950.72
2023-01-12T00:39:53.276Z,98945.50
2023-01-12T00:43:20.917Z,98941.53
2023-01-12T00:46:30.929Z,98935.91
2023-01-12T00:49:33.710Z,98934.63
2023-01-12T00:52:37.704Z,98929.44
2023-01-12T00:55:40.426Z,98923.44
2023-01-12T00:58:42.933Z,98925.06
2023-01-12T01:01:45.918Z,98920.31
2023-01-12T01:04:48.573Z,98909.06
2023-01-12T01:07:52.578Z,98917.78
2023-01-12T01:11:02.448Z,98918.16
2023-01-12T01:14:05.141Z,98922.84
2023-01-12T01:17:08.119Z,98915.75
2023-01-12T01:20:12.465Z,98921.59
2023-01-12T01:23:16.415Z,98922.84
2023-01-12T01:26:21.307Z,98914.41
2023-01-12T01:29:23.913Z,98922.56
2023-01-12T01:32:26.422Z,98925.00
2023-01-12T01:35:29.193Z,98922.72
2023-01-12T01:38:33.847Z,98925.69
2023-01-12T01:41:36.576Z,98922.00
2023-01-12T01:44:54.881Z,98923.47
2023-01-12T01:47:59.692Z,98935.75
2023-01-12T01:51:05.447Z,98935.00
2023-01-12T01:54:09.789Z,98947.84
2023-01-12T01:57:12.648Z,98948.44
2023-01-12T02:03:43.018Z,98945.13
2023-01-12T02:06:45.663Z,98939.78
2023-01-12T02:09:49.588Z,98941.19
2023-01-12T02:13:09.636Z,98939.81
2023-01-12T02:16:23.219Z,98928.06
2023-01-12T02:20:01.417Z,98924.69
2023-01-12T02:23:24.842Z,98915.53
2023-01-12T02:27:07.955Z,98905.72
2023-01-12T02:30:48.234Z,98911.78
2023-01-12T02:34:02.064Z,98904.28
2023-01-12T02:37:12.837Z,98889.75
2023-01-12T02:40:21.917Z,98895.91
2023-01-12T02:43:25.980Z,98881.56
2023-01-12T02:46:31.983Z,98880.38
2023-01-12T02:49:40.435Z,98870.66
2023-01-12T02:52:45.411Z,98870.03
2023-01-12T02:55:48.337Z,98861.41
2023-01-12T02:58:54.767Z,98855.91
2023-01-12T03:02:00.270Z,98853.78
2023-01-12T03:05:04.412Z,98849.72
2023-01-12T03:08:07.145Z,98833.66
2023-01-12T03:11:13.197Z,98839.38
2023-01-12T03:14:16.417Z,98842.69
2023-01-12T03:17:26.040Z,98861.22
2023-01-12T03:20:32.843Z,98864.00
2023-01-12T03:23:40.144Z,98857.38
2023-01-12T03:26:45.137Z,98865.47
2023-01-12T03:29:51.273Z,98858.16
2023-01-12T03:32:54.166Z,98859.41
2023-01-12T03:36:07.232Z,98856.09
2023-01-12T03:39:15.262Z,98860.09
2023-01-12T03:42:21.481Z,98848.84
2023-01-12T03:45:28.284Z,98856.41
2023-01-12T03:48:33.428Z,98860.97
2023-01-12T03:51:40.556Z,98853.56
2023-01-12T03:54:44.206Z,98845.03
2023-01-12T03:57:47.602Z,98844.88
2023-01-12T04:00:50.384Z,98843.59
2023-01-12T04:03:53.221Z,98847.28
2023-01-12T04:06:57.563Z,98835.13
2023-01-12T04:10:00.259Z,98834.94
2023-01-12T04:13:03.095Z,98838.03
2023-01-12T04:16:06.606Z,98829.47
2023-01-12T04:19:09.289Z,98836.34
2023-01-12T04:22:34.112Z,98834.63
2023-01-12T04:25:37.135Z,98824.97
2023-01-12T04:28:39.744Z,98834.75
2023-01-12T04:31:42.468Z,98828.50
2023-01-12T04:34:46.265Z,98832.97
2023-01-12T04:37:50.295Z,98817.13
2023-01-12T04:40:54.799Z,98805.34
2023-01-12T04:43:57.378Z,98809.28
2023-01-12T04:46:59.896Z,98802.72
2023-01-12T04:50:02.479Z,98786.88
2023-01-12T04:53:07.882Z,98779.13
2023-01-12T04:56:10.606Z,98779.03
2023-01-12T04:59:13.378Z,98778.13
2023-01-12T05:02:16.087Z,98779.25
2023-01-12T05:05:18.792Z,98765.41
2023-01-12T05:08:40.340Z,98764.81
2023-01-12T05:11:43.050Z,98770.66
2023-01-12T05:14:45.712Z,98770.25
2023-01-12T05:17:48.278Z,98783.47
2023-01-12T05:20:51.222Z,98785.78
2023-01-12T05:23:55.387Z,98780.75
2023-01-12T05:26:58.601Z,98780.91
2023-01-12T05:30:01.371Z,98766.53
2023-01-12T05:33:04.013Z,98763.81
2023-01-12T05:36:08.278Z,98762.22
2023-01-12T05:39:12.607Z,98773.59
2023-01-12T05:42:32.756Z,98760.78
2023-01-12T05:45:35.506Z,98758.97
2023-01-12T05:48:38.476Z,98767.56
2023-01-12T05:51:41.615Z,98767.75
2023-01-12T05:54:45.859Z,98772.53
2023-01-12T05:57:48.514Z,98777.97
2023-01-12T06:00:51.318Z,98780.41
2023-01-12T06:03:55.838Z,98777.28
2023-01-12T06:06:58.845Z,98764.88
2023-01-12T06:10:02.854Z,98760.97
2023-01-12T06:13:22.972Z,98765.81
2023-01-12T06:16:26.119Z,98750.69
2023-01-12T06:19:28.907Z,98748.06
2023-01-12T06:22:31.617Z,98742.59
2023-01-12T06:25:35.632Z,98743.91
2023-01-12T06:28:39.542Z,98740.00
2023-01-12T06:31:43.870Z,98732.09
2023-01-12T06:34:47.226Z,98724.13
2023-01-12T06:37:50.347Z,98726.66
2023-01-12T06:40:57.195Z,98718.00
2023-01-12T06:44:00.709Z,98719.00
2023-01-12T06:47:03.551Z,98719.50
2023-01-12T06:50:06.927Z,98726.06
2023-01-12T06:53:09.619Z,98723.66
2023-01-12T06:56:13.625Z,98737.00
2023-01-12T06:59:16.676Z,98731.13
2023-01-12T07:02:19.385Z,98738.34
2023-01-12T07:05:22.098Z,98737.09
2023-01-12T07:08:25.159Z,98725.31
2023-01-12T07:11:29.240Z,98728.78
2023-01-12T07:14:31.941Z,98716.34
2023-01-12T07:17:35.387Z,98705.22
2023-01-12T07:20:38.170Z,98698.72
2023-01-12T07:23:42.247Z,98708.47
2023-01-12T07:26:49.255Z,98716.53
2023-01-12T07:29:53.287Z,98710.38
2023-01-12T07:32:56.092Z,98717.56
2023-01-12T07:35:59.788Z,98732.09
2023-01-12T07:39:02.345Z,98722.00
2023-01-12T07:42:25.123Z,98715.34
2023-01-12T07:45:28.601Z,98719.09
2023-01-12T07:48:31.347Z,98727.47
2023-01-12T07:51:34.220Z,98736.66
2023-01-12T07:54:37.979Z,98740.88
2023-01-12T07:57:42.360Z,98738.75
2023-01-12T08:00:45.571Z,98732.16
2023-01-12T08:03:48.243Z,98717.72
2023-01-12T08:06:50.788Z,98722.41
2023-01-12T08:09:53.596Z,98725.63
2023-01-12T08:12:57.648Z,98715.69
2023-01-12T08:16:04.728Z,98710.47
2023-01-12T08:19:12.084Z,98717.78
2023-01-12T08:22:21.096Z,98713.22
2023-01-12T08:25:28.000Z,98713.25
2023-01-12T08:28:34.141Z,98716.94
2023-01-12T08:31:37.488Z,98712.47
2023-01-12T08:34:42.358Z,98726.25
2023-01-12T08:37:45.266Z,98723.50
2023-01-12T08:41:05.510Z,98734.50
2023-01-12T08:44:10.940Z,98730.88
2023-01-12T08:47:18.932Z,98723.97
2023-01-12T08:50:21.579Z,98725.31
2023-01-12T08:53:24.436Z,98733.75
2023-01-12T08:56:27.194Z,98719.22
2023-01-12T08:59:31.558Z,98714.38
2023-01-12T09:02:34.318Z,98721.84
2023-01-12T09:05:37.145Z,98717.72
2023-01-12T09:08:39.737Z,98724.31
2023-01-12T09:11:43.419Z,98723.88
2023-01-12T09:14:47.615Z,98726.97
2023-01-12T09:17:53.132Z,98722.94
2023-01-12T09:21:01.383Z,98728.78
2023-01-12T09:24:05.490Z,98729.13
2023-01-12T09:27:08.656Z,98734.97
2023-01-12T09:30:13.582Z,98746.38
2023-01-12T09:33:17.152Z,98741.44
2023-01-12T09:36:23.159Z,98752.63
2023-01-12T09:39:28.351Z,98763.25
2023-01-12T09:43:00.156Z,98747.56
2023-01-12T09:46:22.067Z,98754.44
2023-01-12T09:49:27.832Z,98742.63
2023-01-12T09:52:33.209Z,98741.13
2023-01-12T09:55:41.772Z,98731.38
2023-01-12T09:59:15.184Z,98721.44
2023-01-12T10:02:20.671Z,98712.13
2023-01-12T10:05:38.841Z,98714.09
2023-01-12T10:08:44.647Z,98701.56
2023-01-12T10:11:51.887Z,98698.53
2023-01-12T10:15:23.599Z,98683.41
2023-01-12T10:18:32.287Z,98683.41
2023-01-12T10:21:36.053Z,98671.47
2023-01-12T10:24:39.171Z,98674.56
2023-01-12T10:27:44.175Z,98681.97
2023-01-12T10:30:48.200Z,98680.81
2023-01-12T10:34:08.984Z,98677.09
2023-01-12T10:37:12.544Z,98675.19
2023-01-12T10:40:25.310Z,98679.13
2023-01-12T10:43:32.573Z,98677.72
2023-01-12T10:46:35.994Z,98683.69
2023-01-12T10:49:40.220Z,98689.00
2023-01-12T10:52:43.262Z,98693.69
2023-01-12T10:55:47.821Z,98688.50
2023-01-12T10:58:55.167Z,98685.91
2023-01-12T11:02:16.011Z,98665.22
2023-01-12T11:05:36.705Z,98656.16
2023-01-12T11:08:40.062Z,98654.22
2023-01-12T11:11:42.717Z,98644.94
2023-01-12T11:14:58.161Z,98633.47
2023-01-12T11:18:07.663Z,98640.66
2023-01-12T11:21:12.819Z,98632.81
2023-01-12T11:24:21.499Z,98649.09
2023-01-12T11:27:29.763Z,98643.03
2023-01-12T11:30:36.809Z,98638.97
2023-01-12T11:33:41.593Z,98637.38
2023-01-12T11:36:48.078Z,98640.84
2023-01-12T11:39:53.231Z,98633.81
2023-01-12T11:43:15.376Z,98632.88
2023-01-12T11:46:26.760Z,98620.94
2023-01-12T11:49:34.497Z,98608.19
2023-01-12T11:52:38.582Z,98600.81
2023-01-12T11:55:56.495Z,98599.81
2023-01-12T11:59:03.090Z,98602.88
2023-01-12T12:02:17.657Z,98600.44
2023-01-12T12:05:28.858Z,98608.09
2023-01-12T12:08:43.188Z,98615.31
2023-01-12T12:11:52.863Z,98594.78
2023-01-12T12:15:08.475Z,98594.13
2023-01-12T12:18:21.172Z,98592.34
2023-01-12T12:21:37.401Z,98589.88
2023-01-12T12:25:16.614Z,98594.56
2023-01-12T12:28:38.710Z,98600.00
2023-01-12T12:31:50.091Z,98589.41
2023-01-12T12:35:05.288Z,98570.31
2023-01-12T12:38:19.603Z,98572.28
2023-01-12T12:42:00.058Z,98572.84
2023-01-12T12:45:19.035Z,98566.00
2023-01-12T12:48:27.532Z,98585.59
2023-01-12T12:51:31.600Z,98566.41
2023-01-12T12:54:35.075Z,98566.88
2023-01-12T12:58:04.299Z,98557.59
2023-01-12T13:01:43.765Z,98551.09
2023-01-12T13:05:06.392Z,98569.25
2023-01-12T13:08:19.741Z,98565.94
2023-01-12T13:11:50.514Z,98566.34
2023-01-12T13:15:21.331Z,98554.81
2023-01-12T13:18:43.616Z,98562.56
2023-01-12T13:21:58.404Z,98561.50
2023-01-12T13:25:02.405Z,98560.69
2023-01-12T13:28:18.077Z,98557.47
2023-01-12T13:31:34.691Z,98560.81
2023-01-12T13:34:46.266Z,98551.88
2023-01-12T13:37:53.437Z,98547.66
2023-01-12T13:41:03.053Z,98547.63
2023-01-12T13:44:07.680Z,98567.34
2023-01-12T13:47:17.121Z,98550.09
2023-01-12T13:50:22.072Z,98567.59
2023-01-12T13:53:28.483Z,98547.53
2023-01-12T13:56:32.909Z,98575.19
2023-01-12T13:59:35.626Z,98573.34
2023-01-12T14:02:40.000Z,98576.50
2023-01-12T14:05:52.558Z,98582.94
2023-01-12T14:09:03.404Z,98585.50
2023-01-12T14:12:28.504Z,98576.50
2023-01-12T14:15:54.986Z,98570.63
2023-01-12T14:18:59.350Z,98562.25
2023-01-12T14:22:05.700Z,98560.03
2023-01-12T14:25:15.304Z,98549.88
2023-01-12T14:28:19.231Z,98552.03
2023-01-12T14:31:28.604Z,98544.28
2023-01-12T14:34:34.895Z,98542.84
2023-01-12T14:37:39.119Z,98547.97
2023-01-12T14:40:42.007Z,98549.41
2023-01-12T14:44:04.300Z,98556.06
2023-01-12T14:47:07.995Z,98551.03
2023-01-12T14:50:19.695Z,98551.34
2023-01-12T14:53:34.536Z,98560.41
2023-01-12T14:56:42.916Z,98549.97
2023-01-12T14:59:47.202Z,98550.13
2023-01-12T15:06:19.750Z,98537.47
2023-01-12T15:09:28.319Z,98535.03
2023-01-12T15:12:47.318Z,98537.59
2023-01-12T15:16:09.350Z,98544.72
2023-01-12T15:19:29.603Z,98549.19
2023-01-12T15:22:51.382Z,98556.91
2023-01-12T15:25:54.056Z,98551.16
2023-01-12T15:28:56.882Z,98552.06
2023-01-12T15:32:00.131Z,98560.94
2023-01-12T15:38:32.102Z,98544.53
2023-01-12T15:41:52.164Z,98546.31
2023-01-12T15:44:55.175Z,98544.25
2023-01-12T15:47:57.935Z,98538.28
2023-01-12T15:51:00.668Z,98549.25
2023-01-12T15:54:05.094Z,98538.78
2023-01-12T15:57:09.283Z,98529.69
2023-01-12T16:00:16.592Z,98540.59
2023-01-12T16:03:49.034Z,98532.38
2023-01-12T16:06:42.125Z,98525.47
2023-01-12T16:09:48.025Z,98528.38
2023-01-12T16:12:50.559Z,98520.84
2023-01-12T16:15:53.442Z,98532.41
2023-01-12T16:18:58.512Z,98524.03
2023-01-12T16:22:01.212Z,98520.50
2023-01-12T16:25:06.131Z,98529.00
2023-01-12T16:28:09.415Z,98528.41
2023-01-12T16:31:13.957Z,98519.72
2023-01-12T16:34:18.292Z,98528.56
2023-01-12T16:37:23.149Z,98524.50
2023-01-12T16:40:27.285Z,98520.84
2023-01-12T16:43:30.805Z,98521.34
2023-01-12T16:46:33.660Z,98526.94
2023-01-12T16:49:36.396Z,98519.72
2023-01-12T16:52:39.078Z,98518.28
2023-01-12T16:55:43.359Z,98520.53
2023-01-12T16:58:48.273Z,98510.41
2023-01-12T17:01:51.982Z,98524.19
2023-01-12T17:04:54.864Z,98517.31
2023-01-12T17:07:57.676Z,98517.78
2023-01-12T17:11:06.909Z,98510.56
2023-01-12T17:14:24.246Z,98513.59
2023-01-12T17:17:27.392Z,98507.19
2023-01-12T17:20:30.256Z,98497.38
2023-01-12T17:23:34.649Z,98498.00
2023-01-12T17:26:40.423Z,98492.41
2023-01-12T17:29:43.521Z,98502.53
2023-01-12T17:32:46.230Z,98504.94
2023-01-12T17:35:49.123Z,98483.38
2023-01-12T17:38:51.795Z,98489.34
2023-01-12T17:42:13.288Z,98467.16
2023-01-12T17:45:15.961Z,98490.44
2023-01-12T17:48:19.664Z,98481.94
2023-01-12T17:51:22.208Z,98474.72
2023-01-12T17:54:24.967Z,98465.91
2023-01-12T17:57:29.916Z,98480.03
2023-01-12T18:00:33.308Z,98477.13
2023-01-12T18:03:36.236Z,98478.09
2023-01-12T18:06:38.837Z,98477.59
2023-01-12T18:09:42.112Z,98487.25
2023-01-12T18:12:46.697Z,98479.84
2023-01-12T18:15:49.569Z,98490.44
2023-01-12T18:18:53.189Z,98493.34
2023-01-12T18:21:55.884Z,98467.47
2023-01-12T18:24:58.735Z,98462.16
2023-01-12T18:28:02.934Z,98474.66
2023-01-12T18:31:07.932Z,98466.44
2023-01-12T18:34:11.699Z,98465.63
2023-01-12T18:37:14.955Z,98470.09
2023-01-12T18:40:17.828Z,98462.06
2023-01-12T18:43:21.098Z,98464.13
2023-01-12T18:46:45.020Z,98459.03
2023-01-12T18:49:48.518Z,98458.75
2023-01-12T18:53:09.219Z,98463.72
2023-01-12T18:56:11.804Z,98464.78
2023-01-12T18:59:16.395Z,98471.59
2023-01-12T19:02:20.053Z,98458.34
2023-01-12T19:05:27.174Z,98459.63
2023-01-12T19:08:47.602Z,98454.47
2023-01-12T19:11:50.217Z,98456.72
2023-01-12T19:15:20.149Z,98458.75
2023-01-12T19:18:23.201Z,98457.34
2023-01-12T19:21:43.172Z,98449.13
2023-01-12T19:25:03.296Z,98453.13
2023-01-12T19:28:26.211Z,98454.72
2023-01-12T19:31:30.473Z,98458.41
2023-01-12T19:34:33.117Z,98449.63
2023-01-12T19:37:36.029Z,98431.72
2023-01-12T19:40:45.381Z,98446.50
2023-01-12T19:43:48.502Z,98448.63
2023-01-12T19:46:53.132Z,98435.47
2023-01-12T19:49:55.927Z,98439.94
2023-01-12T19:52:58.541Z,98446.72
2023-01-12T19:56:01.720Z,98439.34
2023-01-12T19:59:04.500Z,98435.97
2023-01-12T20:02:10.811Z,98442.25
2023-01-12T20:05:21.935Z,98445.53
2023-01-12T20:08:26.109Z,98440.41
2023-01-12T20:11:29.997Z,98445.63
2023-01-12T20:14:33.130Z,98450.38
2023-01-12T20:17:37.379Z,98445.34
2023-01-12T20:20:42.143Z,98443.13
2023-01-12T20:23:44.816Z,98436.91
2023-01-12T20:26:47.695Z,98428.50
2023-01-12T20:29:50.930Z,98417.13
2023-01-12T20:32:55.017Z,98410.38
2023-01-12T20:35:58.297Z,98400.75
2023-01-12T20:39:01.517Z,98393.69
2023-01-12T20:42:04.504Z,98396.03
2023-01-12T20:45:09.151Z,98392.94
2023-01-12T20:48:14.854Z,98383.91
2023-01-12T20:51:18.098Z,98378.00
2023-01-12T20:54:20.950Z,98375.25
2023-01-12T20:57:24.068Z,98372.44
2023-01-12T21:00:28.900Z,98373.38
2023-01-12T21:03:33.218Z,98368.69
2023-01-12T21:06:36.125Z,98375.75
2023-01-12T21:09:39.058Z,98369.53
2023-01-12T21:12:42.271Z,98362.91
2023-01-12T21:15:45.105Z,98355.53
2023-01-12T21:18:49.350Z,98358.94
2023-01-12T21:21:52.261Z,98355.72
2023-01-12T21:24:54.994Z,98344.38
2023-01-12T21:27:57.941Z,98337.06
2023-01-12T21:31:01.995Z,98331.41
2023-01-12T21:34:06.087Z,98323.69
2023-01-12T21:37:08.794Z,98330.63
2023-01-12T21:40:14.339Z,98327.31
2023-01-12T21:43:18.328Z,98327.31
2023-01-12T21:46:22.339Z,98319.53
2023-01-12T21:49:26.551Z,98319.97
2023-01-12T21:52:32.982Z,98312.41
2023-01-12T21:55:36.087Z,98323.50
2023-01-12T21:58:39.297Z,98325.00
2023-01-12T22:01:42.228Z,98322.38
2023-01-12T22:04:46.199Z,98310.91
2023-01-12T22:07:49.322Z,98328.78
2023-01-12T22:10:51.985Z,98314.50
2023-01-12T22:13:54.765Z,98327.53
2023-01-12T22:16:57.470Z,98309.13
2023-01-12T22:20:01.787Z,98309.81
2023-01-12T22:23:04.478Z,98303.22
2023-01-12T22:26:10.037Z,98311.44
2023-01-12T22:29:13.059Z,98308.50
2023-01-12T22:32:15.786Z,98313.75
2023-01-12T22:35:20.092Z,98316.81
2023-01-12T22:38:22.981Z,98308.69
2023-01-12T22:41:26.813Z,98309.41
2023-01-12T22:44:29.757Z,98302.34
2023-01-12T22:47:47.052Z,98314.41
2023-01-12T22:50:54.322Z,98291.50
2023-01-12T22:53:57.660Z,98300.84
2023-01-12T22:57:01.593Z,98300.38
2023-01-12T23:00:05.612Z,98300.03
2023-01-12T23:03:09.894Z,98289.44
2023-01-12T23:06:15.936Z,98290.03
2023-01-12T23:09:19.073Z,98294.38
2023-01-12T23:12:21.768Z,98287.09
2023-01-12T23:15:24.433Z,98294.84
2023-01-12T23:18:29.440Z,98289.63
2023-01-12T23:21:33.541Z,98292.56
2023-01-12T23:24:38.209Z,98284.44
2023-01-12T23:27:40.874Z,98287.06
2023-01-12T23:30:44.080Z,98285.97
2023-01-12T23:33:47.050Z,98285.38
2023-01-12T23:36:51.114Z,98293.72
2023-01-12T23:39:54.107Z,98292.69
2023-01-12T23:42:57.113Z,98274.31
2023-01-12T23:46:00.967Z,98280.38
2023-01-12T23:49:04.427Z,98286.13
2023-01-12T23:52:08.588Z,98283.72
2023-01-12T23:55:11.385Z,98286.91
2023-01-12T23:58:14.331Z,98271.38
